createdAt,value
2023-03-19T00:00:42.696Z,3.83
2023-03-19T00:03:09.667Z,4.10
2023-03-19T00:05:36.797Z,3.15
2023-03-19T00:08:35.130Z,3.53
2023-03-19T00:11:47.662Z,2.88
2023-03-19T00:18:30.701Z,3.60
2023-03-19T00:25:08.502Z,3.17
2023-03-19T00:35:28.381Z,3.88
2023-03-19T00:38:25.277Z,3.60
2023-03-19T00:53:35.086Z,4.00
2023-03-19T00:59:54.786Z,3.55
2023-03-19T01:12:45.240Z,3.25
2023-03-19T01:18:28.190Z,3.30
2023-03-19T01:24:00.510Z,3.42
2023-03-19T01:26:50.670Z,3.90
2023-03-19T01:38:39.246Z,3.28
2023-03-19T01:45:27.272Z,3.92
2023-03-19T01:50:51.328Z,4.13
2023-03-19T01:55:02.668Z,3.47
2023-03-19T01:58:07.518Z,2.97
2023-03-19T02:01:18.593Z,3.20
2023-03-19T02:03:48.100Z,3.10
2023-03-19T02:06:20.196Z,3.60
2023-03-19T02:09:42.776Z,3.03
2023-03-19T02:12:17.053Z,3.30
2023-03-19T02:15:37.373Z,2.75
2023-03-19T02:18:50.932Z,2.88
2023-03-19T02:21:26.155Z,3.63
2023-03-19T02:34:21.096Z,3.00
2023-03-19T02:41:46.446Z,2.83
2023-03-19T02:44:36.134Z,2.45
2023-03-19T02:50:26.658Z,3.03
2023-03-19T02:53:01.082Z,3.45
2023-03-19T02:56:13.915Z,2.88
2023-03-19T03:02:19.041Z,2.40
2023-03-19T03:05:16.590Z,3.55
2023-03-19T03:12:07.589Z,2.78
2023-03-19T03:17:52.036Z,3.10
2023-03-19T03:20:24.299Z,3.30
2023-03-19T03:23:04.884Z,3.03
2023-03-19T03:25:45.466Z,3.28
2023-03-19T03:28:46.306Z,2.47
2023-03-19T03:35:18.126Z,2.47
2023-03-19T03:41:42.352Z,2.97
2023-03-19T03:44:29.614Z,2.60
2023-03-19T03:47:10.399Z,2.67
2023-03-19T03:50:18.837Z,2.92
2023-03-19T03:53:05.573Z,2.50
2023-03-19T03:56:04.487Z,2.22
2023-03-19T03:58:48.319Z,2.08
2023-03-19T04:01:59.120Z,2.55
2023-03-19T04:07:44.034Z,2.90
2023-03-19T04:10:12.145Z,3.00
2023-03-19T04:12:43.123Z,2.97
2023-03-19T04:15:11.522Z,3.30
2023-03-19T04:17:40.976Z,3.00
2023-03-19T04:21:05.428Z,3.08
2023-03-19T04:23:50.072Z,2.22
2023-03-19T04:26:23.052Z,2.78
2023-03-19T04:28:49.998Z,2.80
2023-03-19T04:31:22.688Z,3.42
2023-03-19T04:33:53.072Z,1.95
2023-03-19T04:36:20.254Z,2.42
2023-03-19T04:38:47.238Z,2.50
2023-03-19T04:41:17.141Z,2.37
2023-03-19T04:43:43.936Z,2.03
2023-03-19T04:46:11.640Z,2.72
2023-03-19T04:48:39.941Z,2.08
2023-03-19T04:51:09.787Z,2.30
2023-03-19T04:53:38.262Z,2.60
2023-03-19T04:56:30.271Z,2.28
2023-03-19T04:59:23.051Z,2.40
2023-03-19T05:02:09.901Z,2.90
2023-03-19T05:04:41.372Z,3.22
2023-03-19T05:10:50.500Z,3.00
2023-03-19T05:16:45.757Z,2.10
2023-03-19T05:19:26.765Z,3.30
2023-03-19T05:21:59.356Z,4.72
2023-03-19T05:27:19.317Z,2.90
2023-03-19T05:30:13.560Z,5.07
2023-03-19T05:32:47.187Z,3.03
2023-03-19T05:35:14.691Z,3.67
2023-03-19T05:38:09.742Z,3.63
2023-03-19T05:41:06.630Z,2.28
2023-03-19T05:46:23.836Z,2.78
2023-03-19T05:48:51.808Z,1.90
2023-03-19T05:51:22.530Z,1.85
2023-03-19T05:53:51.190Z,2.13
2023-03-19T05:56:22.459Z,2.78
2023-03-19T05:58:51.605Z,2.78
2023-03-19T06:01:23.808Z,2.25
2023-03-19T06:04:23.826Z,3.00
2023-03-19T06:12:56.771Z,2.63
2023-03-19T06:15:24.574Z,1.90
2023-03-19T06:17:59.378Z,2.53
2023-03-19T06:23:22.262Z,2.38
2023-03-19T06:25:55.388Z,1.70
2023-03-19T06:28:30.329Z,2.45
2023-03-19T06:31:15.768Z,2.80
2023-03-19T06:34:30.363Z,2.20
2023-03-19T06:37:09.107Z,1.30
2023-03-19T06:39:43.503Z,1.60
2023-03-19T06:42:18.449Z,1.30
2023-03-19T06:45:10.934Z,1.55
2023-03-19T06:50:28.095Z,1.67
2023-03-19T06:52:57.475Z,1.42
2023-03-19T06:55:31.967Z,1.30
2023-03-19T06:57:59.073Z,2.03
2023-03-19T07:00:54.072Z,1.23
2023-03-19T07:03:35.198Z,1.52
2023-03-19T07:06:16.842Z,1.77
2023-03-19T07:08:48.649Z,0.95
2023-03-19T07:11:20.398Z,1.10
2023-03-19T07:13:51.386Z,0.90
2023-03-19T07:16:58.921Z,1.30
2023-03-19T07:22:25.184Z,1.15
2023-03-19T07:25:19.586Z,1.20
2023-03-19T07:28:39.644Z,1.13
2023-03-19T07:30:40.764Z,1.80
2023-03-19T07:36:15.972Z,1.20
2023-03-19T07:39:09.060Z,1.38
2023-03-19T07:42:10.285Z,1.00
2023-03-19T07:44:55.548Z,1.25
2023-03-19T07:47:32.819Z,1.02
2023-03-19T07:50:05.159Z,1.58
2023-03-19T07:52:37.336Z,1.08
2023-03-19T07:55:12.257Z,1.55
2023-03-19T07:57:46.013Z,1.40
2023-03-19T08:00:17.075Z,1.13
2023-03-19T08:02:57.932Z,1.38
2023-03-19T08:05:47.539Z,1.63
2023-03-19T08:08:49.686Z,1.13
2023-03-19T08:11:17.908Z,1.27
2023-03-19T08:13:46.257Z,1.00
2023-03-19T08:16:21.871Z,1.40
2023-03-19T08:18:51.298Z,1.20
2023-03-19T08:24:25.317Z,1.48
2023-03-19T08:26:57.254Z,1.10
2023-03-19T08:29:28.310Z,0.90
2023-03-19T08:32:07.581Z,1.23
2023-03-19T08:34:35.119Z,0.77
2023-03-19T08:37:12.241Z,1.30
2023-03-19T08:39:40.980Z,1.15
2023-03-19T08:42:08.154Z,0.82
2023-03-19T08:44:36.472Z,1.02
2023-03-19T08:47:05.361Z,1.10
2023-03-19T08:49:35.658Z,0.88
2023-03-19T08:52:03.928Z,1.25
2023-03-19T08:54:31.396Z,1.08
2023-03-19T08:57:00.918Z,1.17
2023-03-19T08:59:28.658Z,1.23
2023-03-19T09:01:58.858Z,1.00
2023-03-19T09:04:29.528Z,1.00
2023-03-19T09:09:40.885Z,1.02
2023-03-19T09:12:11.584Z,1.40
2023-03-19T09:14:42.984Z,0.70
2023-03-19T09:17:15.994Z,1.52
2023-03-19T09:19:44.654Z,0.82
2023-03-19T09:22:12.490Z,1.00
2023-03-19T09:24:40.815Z,0.70
2023-03-19T09:27:09.162Z,1.30
2023-03-19T09:29:37.363Z,1.02
2023-03-19T09:32:09.621Z,0.70
2023-03-19T09:34:42.369Z,1.00
2023-03-19T09:37:17.656Z,0.80
2023-03-19T09:40:00.558Z,1.02
2023-03-19T09:42:54.195Z,0.90
2023-03-19T09:45:25.714Z,0.60
2023-03-19T09:48:05.228Z,0.60
2023-03-19T09:50:44.455Z,0.80
2023-03-19T09:53:35.659Z,1.75
2023-03-19T09:56:18.596Z,0.88
2023-03-19T09:58:47.793Z,1.10
2023-03-19T10:01:42.424Z,1.20
2023-03-19T10:04:32.666Z,0.90
2023-03-19T10:07:46.213Z,0.90
2023-03-19T10:10:49.907Z,0.93
2023-03-19T10:14:17.207Z,0.52
2023-03-19T10:16:50.594Z,0.80
2023-03-19T10:19:31.741Z,0.60
2023-03-19T10:22:07.853Z,0.73
2023-03-19T10:24:42.586Z,0.90
2023-03-19T10:27:23.338Z,0.82
2023-03-19T10:29:54.736Z,0.88
2023-03-19T10:33:29.130Z,0.80
2023-03-19T10:36:10.261Z,0.57
2023-03-19T10:38:48.435Z,0.98
2023-03-19T10:41:30.940Z,1.20
2023-03-19T10:44:05.412Z,0.73
2023-03-19T10:46:41.772Z,0.68
2023-03-19T10:49:57.651Z,0.88
2023-03-19T10:52:33.399Z,0.70
2023-03-19T10:55:15.846Z,0.50
2023-03-19T10:57:44.445Z,0.63
2023-03-19T11:00:24.728Z,0.88
2023-03-19T11:02:57.060Z,0.93
2023-03-19T11:05:31.934Z,0.88
2023-03-19T11:08:34.567Z,0.80
2023-03-19T11:11:03.389Z,0.82
2023-03-19T11:13:31.789Z,0.80
2023-03-19T11:16:03.989Z,0.80
2023-03-19T11:19:00.918Z,0.75
2023-03-19T11:21:33.063Z,0.82
2023-03-19T11:24:04.014Z,0.80
2023-03-19T11:26:33.102Z,0.55
2023-03-19T11:29:05.592Z,0.80
2023-03-19T11:32:21.052Z,0.47
2023-03-19T11:35:08.128Z,0.57
2023-03-19T11:37:55.774Z,0.90
2023-03-19T11:40:53.361Z,0.77
2023-03-19T11:43:42.354Z,0.80
2023-03-19T11:46:23.012Z,0.70
2023-03-19T11:49:06.748Z,0.80
2023-03-19T11:52:00.967Z,0.95
2023-03-19T11:54:53.565Z,0.73
2023-03-19T11:57:47.758Z,1.45
2023-03-19T12:00:29.025Z,0.75
2023-03-19T12:03:20.553Z,0.60
2023-03-19T12:06:09.059Z,0.80
2023-03-19T12:09:01.356Z,0.40
2023-03-19T12:11:42.711Z,0.93
2023-03-19T12:14:37.878Z,0.40
2023-03-19T12:17:20.588Z,0.77
2023-03-19T12:20:20.852Z,0.80
2023-03-19T12:22:57.725Z,0.65
2023-03-19T12:25:30.212Z,0.70
2023-03-19T12:28:43.709Z,0.60
2023-03-19T12:31:30.123Z,1.02
2023-03-19T12:34:15.633Z,0.80
2023-03-19T12:37:05.426Z,0.98
2023-03-19T12:39:42.303Z,0.82
2023-03-19T12:42:17.377Z,0.60
2023-03-19T12:44:49.899Z,0.50
2023-03-19T12:47:27.285Z,0.70
2023-03-19T12:50:09.162Z,0.82
2023-03-19T16:30:54.325Z,2.50
2023-03-19T16:33:21.684Z,3.30
2023-03-19T16:35:55.579Z,3.38
2023-03-19T16:38:28.729Z,2.40
2023-03-19T16:41:34.277Z,2.47
2023-03-19T16:44:14.345Z,2.17
2023-03-19T16:46:42.688Z,1.30
2023-03-19T16:49:13.499Z,1.50
2023-03-19T16:51:44.893Z,1.45
2023-03-19T16:54:20.390Z,1.00
2023-03-19T16:56:50.702Z,1.70
2023-03-19T16:59:31.010Z,1.20
2023-03-19T17:01:59.916Z,1.20
2023-03-19T17:04:42.017Z,1.15
2023-03-19T17:07:10.439Z,1.40
2023-03-19T17:09:38.637Z,1.58
2023-03-19T17:12:09.878Z,1.48
2023-03-19T17:15:04.829Z,1.38
2023-03-19T17:17:32.796Z,1.42
2023-03-19T17:19:59.932Z,1.60
2023-03-19T17:22:28.246Z,1.00
2023-03-19T17:24:56.599Z,1.30
2023-03-19T17:27:38.289Z,3.67
2023-03-19T17:30:06.366Z,2.20
2023-03-19T17:35:42.996Z,1.83
2023-03-19T17:38:23.624Z,1.70
2023-03-19T17:41:12.287Z,1.75
2023-03-19T17:43:44.630Z,1.70
2023-03-19T17:46:37.185Z,2.38
2023-03-19T17:49:07.172Z,2.50
2023-03-19T17:52:20.752Z,2.17
2023-03-19T17:54:49.140Z,2.10
2023-03-19T18:00:28.806Z,1.23
2023-03-19T18:03:42.670Z,1.80
2023-03-19T18:08:39.366Z,1.45
2023-03-19T18:09:56.695Z,1.17
2023-03-19T18:12:40.662Z,1.45
2023-03-19T18:15:32.328Z,1.20
2023-03-19T18:18:10.333Z,1.40
2023-03-19T18:20:49.531Z,1.60
2023-03-19T18:23:22.645Z,1.67
2023-03-19T18:25:56.382Z,1.30
2023-03-19T18:29:56.738Z,1.42
2023-03-19T18:39:13.616Z,1.58
2023-03-19T18:42:09.204Z,1.65
2023-03-19T18:46:30.281Z,1.83
2023-03-19T18:48:39.234Z,1.90
2023-03-19T18:54:23.128Z,1.55
2023-03-19T18:57:14.965Z,2.53
2023-03-19T19:07:00.647Z,1.77
2023-03-19T19:17:45.119Z,1.63
2023-03-19T19:21:05.846Z,1.95
2023-03-19T19:24:28.948Z,1.50
2023-03-19T19:28:03.643Z,1.83
2023-03-19T19:33:49.906Z,2.80
2023-03-19T19:39:52.472Z,3.47
2023-03-19T19:46:29.361Z,2.78
2023-03-19T19:49:41.622Z,2.90
2023-03-19T19:52:58.840Z,2.67
2023-03-19T19:58:42.784Z,3.70
2023-03-19T20:01:59.886Z,3.60
2023-03-19T20:05:14.824Z,2.60
2023-03-19T20:07:49.385Z,2.97
2023-03-19T20:10:21.056Z,3.03
2023-03-19T20:13:24.601Z,2.15
2023-03-19T20:16:03.917Z,2.33
2023-03-19T20:18:39.438Z,2.60
2023-03-19T20:21:10.132Z,2.42
2023-03-19T20:23:49.913Z,2.72
2023-03-19T20:26:25.954Z,2.40
2023-03-19T20:29:17.576Z,2.92
2023-03-19T20:31:48.542Z,2.10
2023-03-19T20:34:36.390Z,2.78
2023-03-19T20:37:06.258Z,2.30
2023-03-19T20:40:02.356Z,2.70
2023-03-19T20:42:36.668Z,2.10
2023-03-19T20:45:16.118Z,2.50
2023-03-19T20:47:45.926Z,2.13
2023-03-19T20:50:23.053Z,2.40
2023-03-19T20:53:07.231Z,2.13
2023-03-19T20:55:41.321Z,2.83
2023-03-19T20:58:40.096Z,2.40
2023-03-19T21:03:54.360Z,1.83
2023-03-19T21:06:27.611Z,1.98
2023-03-19T21:11:46.666Z,2.13
2023-03-19T21:17:21.859Z,1.65
2023-03-19T21:19:56.336Z,1.65
2023-03-19T21:22:40.132Z,1.85
2023-03-19T21:25:16.194Z,2.83
2023-03-19T21:27:56.352Z,2.60
2023-03-19T21:30:27.174Z,1.65
2023-03-19T21:33:00.620Z,1.38
2023-03-19T21:35:28.501Z,2.78
2023-03-19T21:38:05.606Z,1.67
2023-03-19T21:40:40.966Z,1.80
2023-03-19T21:43:41.161Z,1.90
2023-03-19T21:46:24.742Z,2.45
2023-03-19T21:48:59.271Z,1.92
2023-03-19T21:51:36.802Z,2.10
2023-03-19T21:56:59.300Z,2.10
2023-03-19T21:59:35.655Z,2.05
2023-03-19T22:02:08.403Z,1.73
2023-03-19T22:04:49.465Z,2.08
2023-03-19T22:07:26.838Z,1.63
2023-03-19T22:10:04.084Z,2.20
2023-03-19T22:12:41.301Z,1.85
2023-03-19T22:15:44.867Z,1.87
2023-03-19T22:18:37.332Z,1.52
2023-03-19T22:21:14.721Z,1.92
2023-03-19T22:23:43.393Z,1.48
2023-03-19T22:26:45.128Z,2.20
2023-03-19T22:29:52.043Z,2.15
2023-03-19T22:32:29.263Z,2.10
2023-03-19T22:34:57.979Z,2.08
2023-03-19T22:37:31.801Z,1.80
2023-03-19T22:40:03.799Z,1.80
2023-03-19T22:42:35.175Z,1.42
2023-03-19T22:45:09.008Z,1.85
2023-03-19T22:47:43.563Z,1.92
2023-03-19T22:50:51.975Z,2.28
2023-03-19T22:53:40.942Z,2.22
2023-03-19T22:56:26.546Z,1.65
2023-03-19T22:58:55.165Z,1.65
2023-03-19T23:01:26.212Z,1.95
2023-03-19T23:04:09.466Z,2.53
2023-03-19T23:06:42.531Z,1.83
2023-03-19T23:09:38.912Z,1.85
2023-03-19T23:12:14.603Z,1.53
2023-03-19T23:14:44.036Z,1.38
2023-03-19T23:20:07.422Z,2.17
2023-03-19T23:22:35.869Z,1.85
2023-03-19T23:25:07.900Z,2.05
2023-03-19T23:27:41.660Z,2.00
2023-03-19T23:30:43.638Z,2.00
2023-03-19T23:36:07.924Z,1.33
2023-03-19T23:38:51.709Z,1.88
2023-03-19T23:42:09.002Z,1.73
2023-03-19T23:44:38.108Z,1.30
2023-03-19T23:47:21.923Z,1.40
2023-03-19T23:49:51.548Z,1.52
2023-03-19T23:52:24.241Z,1.40
2023-03-19T23:54:58.666Z,1.73
2023-03-19T23:57:34.549Z,1.92
